Saturday, February 24, 2018, 1:00 PM EST
Back to Local

KCAR, Caribou Municipal Airport

Location: Caribou, ME, United States Lat: 46.867
Local Time: 1:00 PM EST (18:00 GMT) Lon: -68.017
Time Zone: US/Eastern Elev: 626 ft

Show me the last for .
Show Decoded

2018-02-24 11:54 METAR KCAR 241654Z AUTO 31011G18KT 10SM CLR 02/M08 A2992 RMK AO2 SLP141
                 T00171078 =
2018-02-24 10:54 METAR KCAR 241554Z AUTO 33012G22KT 10SM OVC039 02/M07 A2990 RMK AO2 SLP138
                 T00221067 =
2018-02-24 09:54 METAR KCAR 241454Z AUTO 33012G19KT 10SM BKN033 BKN039 BKN047 01/M05 A2988 RMK
                 AO2 PK WND 33026/1435 SLP130 T00111050 51029 =
2018-02-24 09:10 METAR KCAR 241410Z AUTO 34011G22KT 10SM FEW021 BKN030 OVC049 01/M04 A2986 RMK
                 AO2 T00111039 =
2018-02-24 09:01 METAR KCAR 241401Z AUTO 34014KT 10SM BKN022 BKN030 OVC039 01/M04 A2986 =
2018-02-24 08:54 METAR KCAR 241354Z AUTO 34013KT 10SM SCT022 BKN036 OVC055 01/M03 A2985 RMK AO2
                 SLP121 T00111033 =
2018-02-24 07:54 METAR KCAR 241254Z AUTO 28004KT 10SM SCT043 OVC055 01/M03 A2982 RMK AO2 SLP110
                 T00111033 =
2018-02-24 06:54 METAR KCAR 241154Z AUTO 22003KT 10SM FEW025 BKN049 M01/M03 A2979 RMK AO2 SLP100
                 70005 T10111028 11011 21028 53015 =
2018-02-24 06:46 METAR KCAR 241146Z AUTO 23004KT 10SM FEW023 SCT029 BKN047 M01/M03 A2979 RMK AO2
                 T10111028 =
2018-02-24 06:27 METAR KCAR 241127Z AUTO 00000KT 10SM FEW023 BKN029 OVC070 M01/M03 A2978 RMK AO2
                 T10111028 =
2018-02-24 05:54 METAR KCAR 241054Z AUTO 19003KT 10SM FEW022 SCT027 OVC055 M01/M03 A2976 RMK AO2
                 SLP090 T10111028 =
2018-02-24 05:02 METAR KCAR 241002Z AUTO 23005KT 10SM BKN021 OVC048 M01/M03 A2976 RMK AO2
                 T10111028 =
2018-02-24 04:54 METAR KCAR 240954Z AUTO 22005KT 10SM SCT021 OVC048 M01/M03 A2975 RMK AO2 SLP086
                 T10111028 =
2018-02-24 03:54 METAR KCAR 240854Z AUTO 22005KT 10SM OVC019 M01/M03 A2975 RMK AO2 SLP085
                 T10111033 56019 =
2018-02-24 02:54 METAR KCAR 240754Z AUTO 22005KT 10SM FEW016 OVC023 M02/M04 A2975 RMK AO2 SLP087
                 T10171039 =
2018-02-24 02:45 METAR KCAR 240745Z AUTO 21008KT 10SM FEW011 BKN016 OVC025 M02/M04 A2975 RMK AO2
                 T10171039 =
2018-02-24 01:54 METAR KCAR 240654Z AUTO 20004KT 9SM OVC011 M02/M04 A2977 RMK AO2 SLP095
                 T10221039 =
2018-02-24 00:54 METAR KCAR 240554Z AUTO 21007KT 7SM OVC011 M03/M04 A2980 RMK AO2 SLP105 60005
                 I6001 T10281044 11028 21050 56057 =
2018-02-24 00:22 METAR KCAR 240522Z AUTO 20006KT 7SM BKN013 OVC023 M03/M05 A2983 RMK AO2
                 T10281050 =
2018-02-24 00:03 METAR KCAR 240503Z AUTO 19008KT 4SM BR FEW007 BKN023 OVC031 M03/M05 A2985 RMK
                 AO2 T10331050 =
2018-02-23 23:54 METAR KCAR 240454Z AUTO 20008KT 4SM BR FEW010 SCT023 OVC031 M03/M06 A2985 RMK
                 AO2 SNE13 SLP120 P0000 T10331056 410331194 =
2018-02-23 23:38 METAR KCAR 240438Z AUTO 18006KT 3SM BR FEW008 BKN021 OVC033 M04/M06 A2986 =
2018-02-23 23:20 METAR KCAR 240420Z AUTO 18008KT 2SM BR BKN019 OVC029 M04/M06 A2987 RMK AO2 SNE13
                 P0000 T10441061 =
2018-02-23 23:12 METAR KCAR 240412Z AUTO 18007KT 1 3/4SM -SN BR OVC017 M04/M06 A2988 =
2018-02-23 23:03 METAR KCAR 240403Z AUTO 18008KT 1 1/4SM -SN BR OVC015 M04/M07 A2989 RMK AO2
                 PRESFR P0000 T10441067 =
2018-02-23 22:54 METAR KCAR 240354Z AUTO 17007KT 1 1/4SM -SN BR OVC013 M04/M07 A2990 RMK AO2
                 SLP139 P0003 I1000 T10441067 =
2018-02-23 22:24 METAR KCAR 240324Z AUTO 18007KT 1SM -SN BR VV012 M04/M07 A2994 RMK AO2 PRESFR
                 P0002 I1000 T10441067 =
2018-02-23 22:13 METAR KCAR 240313Z AUTO 19006KT 1SM -SN BR FEW009 OVC015 M04/M07 A2995 RMK AO2
                 PRESFR P0001 I1000 T10441067 =
2018-02-23 22:05 METAR KCAR 240305Z AUTO 18006KT 1 1/2SM -SN BR FEW009 OVC017 M04/M07 A2996 RMK
                 AO2 PRESFR P0001 I1000 T10441067 =
2018-02-23 21:54 METAR KCAR 240254Z AUTO 18007KT 2 1/2SM -SN BR SCT010 SCT013 OVC023 M04/M07
                 A2997 RMK AO2 FZRAB0159E20SNB31 SLP165 P0001 60002 I1001 I3001 T10441067 58033 =
2018-02-23 21:45 METAR KCAR 240245Z AUTO 18008KT 2 1/2SM -SN BR BKN010 BKN017 OVC025 M04/M07
                 A2998 RMK AO2 FZRAB0159E20SNB31 P0001 I1001 T10441067 =
2018-02-23 21:21 METAR KCAR 240221Z AUTO 18009KT 6SM BKN010 OVC017 M04/M07 A3000 RMK AO2
                 FZRAB0159E20 P0000 I1001 T10441072 =
2018-02-23 21:05 METAR KCAR 240205Z AUTO 18012KT 5SM -FZRA SCT015 OVC022 M04/M07 A3001 RMK AO2
                 FZRAB0159 P0000 I1000 T10441072 =
2018-02-23 20:54 METAR KCAR 240154Z AUTO 18011KT 4SM BR FEW016 BKN022 OVC039 M05/M07 A3002 RMK
                 AO2 SNE53 PRESFR SLP180 P0001 T10501072 =
2018-02-23 20:26 METAR KCAR 240126Z AUTO 18012KT 2SM -SN BKN024 OVC043 M05/M08 A3005 RMK AO2
                 P0000 T10501078 =
2018-02-23 19:54 METAR KCAR 240054Z AUTO 18012KT 4SM -SN OVC026 M04/M08 A3007 RMK AO2 PRESFR
                 SLP198 P0000 T10441083 =
2018-02-23 19:51 METAR KCAR 240051Z AUTO 19012KT 4SM -SN OVC026 M04/M08 A3007 RMK AO2 PRESFR
                 P0000 =
2018-02-23 18:54 METAR KCAR 232354Z AUTO 18016G21KT 6SM -SN OVC038 M03/M12 A3015 RMK AO2 SNB43
                 PRESFR SLP225 P0000 60000 T10331117 11033 21039 58060 =
2018-02-23 17:54 METAR KCAR 232254Z AUTO 16010KT 10SM BKN055 BKN075 OVC090 M03/M13 A3021 RMK AO2
                 SLP247 T10331128 =
2018-02-23 16:54 METAR KCAR 232154Z AUTO 17010KT 10SM BKN095 OVC110 M03/M13 A3027 RMK AO2 SLP269
                 T10331128 =
2018-02-23 15:54 METAR KCAR 232054Z AUTO 15008KT 10SM OVC100 M03/M12 A3032 RMK AO2 PRESFR SLP285
                 T10331122 58054 =
2018-02-23 14:54 METAR KCAR 231954Z AUTO 14009KT 10SM OVC100 M04/M13 A3037 RMK AO2 SLP299
                 T10391133 =
2018-02-23 13:54 METAR KCAR 231854Z AUTO 18012KT 10SM CLR M03/M13 A3045 RMK AO2 SLP327 T10331133
                 =

Support USWX by starting your Amazon purchase here.